sensor_id;sensor_type;location;lat;lon;timestamp;pressure;altitude;pressure_sealevel;temperature;humidity
9899;BME280;4988;49.238;6.698;2023-05-29T00:01:47;99218.88;;;15.99;67.04
9899;BME280;4988;49.238;6.698;2023-05-29T00:04:12;99217.69;;;16.03;66.50
9899;BME280;4988;49.238;6.698;2023-05-29T00:06:38;99220.09;;;16.08;65.90
9899;BME280;4988;49.238;6.698;2023-05-29T00:09:03;99218.06;;;16.12;65.96
9899;BME280;4988;49.238;6.698;2023-05-29T00:11:29;99224.19;;;16.14;66.08
9899;BME280;4988;49.238;6.698;2023-05-29T00:13:55;99218.41;;;16.20;64.65
9899;BME280;4988;49.238;6.698;2023-05-29T00:16:22;99215.59;;;16.21;65.18
9899;BME280;4988;49.238;6.698;2023-05-29T00:18:48;99216.56;;;16.20;64.92
9899;BME280;4988;49.238;6.698;2023-05-29T00:21:14;99213.34;;;16.15;64.96
9899;BME280;4988;49.238;6.698;2023-05-29T00:23:39;99205.81;;;16.20;64.55
9899;BME280;4988;49.238;6.698;2023-05-29T00:26:05;99202.78;;;16.12;64.75
9899;BME280;4988;49.238;6.698;2023-05-29T00:28:30;99206.84;;;16.05;65.16
9899;BME280;4988;49.238;6.698;2023-05-29T00:30:56;99199.13;;;16.00;65.41
9899;BME280;4988;49.238;6.698;2023-05-29T00:33:21;99194.59;;;15.88;66.02
9899;BME280;4988;49.238;6.698;2023-05-29T00:35:47;99194.59;;;15.88;65.92
9899;BME280;4988;49.238;6.698;2023-05-29T00:38:12;99198.53;;;15.82;65.78
9899;BME280;4988;49.238;6.698;2023-05-29T00:40:39;99193.66;;;15.74;66.35
9899;BME280;4988;49.238;6.698;2023-05-29T00:43:05;99207.81;;;15.76;66.65
9899;BME280;4988;49.238;6.698;2023-05-29T00:45:30;99197.41;;;15.72;66.19
9899;BME280;4988;49.238;6.698;2023-05-29T00:47:57;99203.97;;;15.81;65.99
9899;BME280;4988;49.238;6.698;2023-05-29T00:50:23;99205.13;;;15.76;65.68
9899;BME280;4988;49.238;6.698;2023-05-29T00:52:49;99198.81;;;15.77;66.04
9899;BME280;4988;49.238;6.698;2023-05-29T00:55:15;99201.38;;;15.79;66.25
9899;BME280;4988;49.238;6.698;2023-05-29T00:57:41;99202.44;;;15.76;66.48
9899;BME280;4988;49.238;6.698;2023-05-29T01:00:08;99208.59;;;15.79;66.32
9899;BME280;4988;49.238;6.698;2023-05-29T01:02:36;99203.91;;;15.82;65.69
9899;BME280;4988;49.238;6.698;2023-05-29T01:05:03;99198.34;;;15.85;65.97
9899;BME280;4988;49.238;6.698;2023-05-29T01:07:28;99197.00;;;15.78;66.00
9899;BME280;4988;49.238;6.698;2023-05-29T01:09:53;99199.03;;;15.74;66.25
9899;BME280;4988;49.238;6.698;2023-05-29T01:15:35;99204.88;;;15.67;66.50
9899;BME280;4988;49.238;6.698;2023-05-29T01:20:47;99200.38;;;15.67;65.13
9899;BME280;4988;49.238;6.698;2023-05-29T01:28:30;99195.13;;;15.66;65.27
9899;BME280;4988;49.238;6.698;2023-05-29T01:31:00;99198.66;;;15.66;65.56
9899;BME280;4988;49.238;6.698;2023-05-29T01:33:27;99199.84;;;15.62;65.38
9899;BME280;4988;49.238;6.698;2023-05-29T01:35:52;99206.47;;;15.56;65.51
9899;BME280;4988;49.238;6.698;2023-05-29T01:38:18;99207.31;;;15.57;65.49
9899;BME280;4988;49.238;6.698;2023-05-29T01:40:44;99208.38;;;15.54;65.54
9899;BME280;4988;49.238;6.698;2023-05-29T01:43:09;99211.16;;;15.53;64.89
9899;BME280;4988;49.238;6.698;2023-05-29T01:45:36;99209.84;;;15.46;65.24
9899;BME280;4988;49.238;6.698;2023-05-29T01:48:01;99218.19;;;15.41;65.85
9899;BME280;4988;49.238;6.698;2023-05-29T01:50:27;99213.03;;;15.38;65.08
9899;BME280;4988;49.238;6.698;2023-05-29T01:52:52;99210.63;;;15.33;65.66
9899;BME280;4988;49.238;6.698;2023-05-29T01:55:18;99207.22;;;15.31;65.77
9899;BME280;4988;49.238;6.698;2023-05-29T01:57:44;99214.28;;;15.32;64.97
9899;BME280;4988;49.238;6.698;2023-05-29T02:00:10;99218.31;;;15.25;65.61
9899;BME280;4988;49.238;6.698;2023-05-29T02:02:39;99213.94;;;15.24;64.97
9899;BME280;4988;49.238;6.698;2023-05-29T02:05:06;99207.91;;;15.20;65.49
9899;BME280;4988;49.238;6.698;2023-05-29T02:07:33;99208.75;;;15.21;66.12
9899;BME280;4988;49.238;6.698;2023-05-29T02:09:58;99208.34;;;15.27;65.10
9899;BME280;4988;49.238;6.698;2023-05-29T02:12:23;99207.03;;;15.20;65.81
9899;BME280;4988;49.238;6.698;2023-05-29T02:14:49;99210.38;;;15.23;66.06
9899;BME280;4988;49.238;6.698;2023-05-29T02:17:14;99211.25;;;15.24;65.52
9899;BME280;4988;49.238;6.698;2023-05-29T02:19:40;99213.06;;;15.23;65.41
9899;BME280;4988;49.238;6.698;2023-05-29T02:22:05;99206.28;;;15.18;65.75
9899;BME280;4988;49.238;6.698;2023-05-29T02:24:31;99210.59;;;15.20;66.44
9899;BME280;4988;49.238;6.698;2023-05-29T02:26:56;99211.72;;;15.16;65.80
9899;BME280;4988;49.238;6.698;2023-05-29T02:29:22;99207.03;;;15.20;65.94
9899;BME280;4988;49.238;6.698;2023-05-29T02:31:47;99205.50;;;15.16;65.83
9899;BME280;4988;49.238;6.698;2023-05-29T02:34:12;99197.66;;;15.12;65.97
9899;BME280;4988;49.238;6.698;2023-05-29T02:36:38;99198.63;;;15.11;66.05
9899;BME280;4988;49.238;6.698;2023-05-29T02:39:04;99212.03;;;15.11;66.36
9899;BME280;4988;49.238;6.698;2023-05-29T02:41:30;99210.78;;;15.17;66.45
9899;BME280;4988;49.238;6.698;2023-05-29T02:43:55;99211.06;;;15.12;65.96
9899;BME280;4988;49.238;6.698;2023-05-29T02:46:21;99198.63;;;15.11;66.17
9899;BME280;4988;49.238;6.698;2023-05-29T02:48:47;99210.97;;;15.14;65.97
9899;BME280;4988;49.238;6.698;2023-05-29T02:51:12;99210.38;;;15.09;66.17
9899;BME280;4988;49.238;6.698;2023-05-29T02:53:38;99209.75;;;15.05;66.82
9899;BME280;4988;49.238;6.698;2023-05-29T02:56:03;99204.47;;;15.04;66.56
9899;BME280;4988;49.238;6.698;2023-05-29T02:58:29;99201.88;;;15.02;66.56
9899;BME280;4988;49.238;6.698;2023-05-29T03:00:54;99203.50;;;15.05;66.09
9899;BME280;4988;49.238;6.698;2023-05-29T03:03:19;99201.88;;;15.02;65.88
9899;BME280;4988;49.238;6.698;2023-05-29T03:05:45;99198.34;;;15.02;66.57
9899;BME280;4988;49.238;6.698;2023-05-29T03:08:11;99191.44;;;14.98;66.53
9899;BME280;4988;49.238;6.698;2023-05-29T03:10:37;99206.03;;;14.93;66.62
9899;BME280;4988;49.238;6.698;2023-05-29T03:13:03;99200.75;;;14.92;66.41
9899;BME280;4988;49.238;6.698;2023-05-29T03:15:28;99196.25;;;14.92;66.48
9899;BME280;4988;49.238;6.698;2023-05-29T03:17:54;99201.59;;;14.92;66.25
9899;BME280;4988;49.238;6.698;2023-05-29T03:20:19;99200.94;;;14.89;67.31
9899;BME280;4988;49.238;6.698;2023-05-29T03:22:45;99205.06;;;14.80;67.60
9899;BME280;4988;49.238;6.698;2023-05-29T03:25:10;99198.66;;;14.83;67.30
9899;BME280;4988;49.238;6.698;2023-05-29T03:27:36;99198.84;;;14.79;67.21
9899;BME280;4988;49.238;6.698;2023-05-29T03:30:01;99201.53;;;14.79;67.16
9899;BME280;4988;49.238;6.698;2023-05-29T03:32:28;99200.56;;;14.80;67.19
9899;BME280;4988;49.238;6.698;2023-05-29T03:34:53;99207.06;;;14.76;67.10
9899;BME280;4988;49.238;6.698;2023-05-29T03:37:18;99211.75;;;14.73;67.18
9899;BME280;4988;49.238;6.698;2023-05-29T03:39:44;99211.47;;;14.77;67.12
9899;BME280;4988;49.238;6.698;2023-05-29T03:42:09;99216.00;;;14.77;66.93
9899;BME280;4988;49.238;6.698;2023-05-29T03:44:34;99216.56;;;14.68;67.39
9899;BME280;4988;49.238;6.698;2023-05-29T03:47:00;99218.38;;;14.67;67.17
9899;BME280;4988;49.238;6.698;2023-05-29T03:49:25;99217.69;;;14.63;66.84
9899;BME280;4988;49.238;6.698;2023-05-29T03:51:50;99218.06;;;14.57;66.86
9899;BME280;4988;49.238;6.698;2023-05-29T03:54:16;99215.28;;;14.59;67.44
9899;BME280;4988;49.238;6.698;2023-05-29T03:56:41;99220.41;;;14.62;66.68
9899;BME280;4988;49.238;6.698;2023-05-29T03:59:06;99215.06;;;14.62;66.97
9899;BME280;4988;49.238;6.698;2023-05-29T04:01:32;99232.03;;;14.62;67.52
9899;BME280;4988;49.238;6.698;2023-05-29T04:03:57;99228.38;;;14.63;67.10
9899;BME280;4988;49.238;6.698;2023-05-29T04:06:22;99230.28;;;14.61;67.67
9899;BME280;4988;49.238;6.698;2023-05-29T04:08:48;99233.91;;;14.60;67.38
9899;BME280;4988;49.238;6.698;2023-05-29T04:11:14;99238.81;;;14.54;67.89
9899;BME280;4988;49.238;6.698;2023-05-29T04:13:40;99239.56;;;14.56;67.33
9899;BME280;4988;49.238;6.698;2023-05-29T04:16:06;99242.06;;;14.59;67.50
9899;BME280;4988;49.238;6.698;2023-05-29T04:18:31;99239.94;;;14.64;66.74
9899;BME280;4988;49.238;6.698;2023-05-29T04:20:57;99240.56;;;14.69;67.06
9899;BME280;4988;49.238;6.698;2023-05-29T04:23:23;99240.84;;;14.79;66.72
9899;BME280;4988;49.238;6.698;2023-05-29T04:25:48;99245.16;;;14.96;66.82
9899;BME280;4988;49.238;6.698;2023-05-29T04:28:16;99247.75;;;15.12;65.58
9899;BME280;4988;49.238;6.698;2023-05-29T04:30:42;99257.59;;;15.26;65.36
9899;BME280;4988;49.238;6.698;2023-05-29T04:33:07;99256.81;;;15.38;64.86
9899;BME280;4988;49.238;6.698;2023-05-29T04:35:34;99261.47;;;15.49;64.87
9899;BME280;4988;49.238;6.698;2023-05-29T04:38:00;99266.72;;;15.65;64.38
9899;BME280;4988;49.238;6.698;2023-05-29T04:40:26;99265.34;;;15.72;64.07
9899;BME280;4988;49.238;6.698;2023-05-29T04:42:51;99264.41;;;15.73;63.71
9899;BME280;4988;49.238;6.698;2023-05-29T04:45:22;99272.91;;;15.80;63.97
9899;BME280;4988;49.238;6.698;2023-05-29T04:47:47;99278.78;;;15.87;63.10
9899;BME280;4988;49.238;6.698;2023-05-29T04:50:13;99276.94;;;15.87;63.29
9899;BME280;4988;49.238;6.698;2023-05-29T04:52:39;99282.84;;;15.92;63.31
9899;BME280;4988;49.238;6.698;2023-05-29T04:55:05;99276.41;;;15.95;62.81
9899;BME280;4988;49.238;6.698;2023-05-29T04:57:30;99273.91;;;16.06;63.03
9899;BME280;4988;49.238;6.698;2023-05-29T04:59:56;99275.22;;;16.14;62.80
9899;BME280;4988;49.238;6.698;2023-05-29T05:02:21;99284.00;;;16.16;61.96
9899;BME280;4988;49.238;6.698;2023-05-29T05:04:46;99280.59;;;16.14;61.63
9899;BME280;4988;49.238;6.698;2023-05-29T05:07:12;99281.03;;;16.20;61.77
9899;BME280;4988;49.238;6.698;2023-05-29T05:09:38;99286.09;;;16.25;61.44
9899;BME280;4988;49.238;6.698;2023-05-29T05:12:03;99283.19;;;16.28;61.67
9899;BME280;4988;49.238;6.698;2023-05-29T05:14:29;99283.53;;;16.36;61.58
9899;BME280;4988;49.238;6.698;2023-05-29T05:16:54;99280.84;;;16.36;61.18
9899;BME280;4988;49.238;6.698;2023-05-29T05:19:20;99287.53;;;16.44;60.21
9899;BME280;4988;49.238;6.698;2023-05-29T05:21:45;99287.13;;;16.50;60.53
9899;BME280;4988;49.238;6.698;2023-05-29T05:24:10;99294.44;;;16.61;61.32
9899;BME280;4988;49.238;6.698;2023-05-29T05:26:36;99289.72;;;16.64;60.72
9899;BME280;4988;49.238;6.698;2023-05-29T05:29:01;99300.47;;;16.77;60.66
9899;BME280;4988;49.238;6.698;2023-05-29T05:31:26;99298.44;;;16.81;60.68
9899;BME280;4988;49.238;6.698;2023-05-29T05:33:52;99300.28;;;16.93;60.13
9899;BME280;4988;49.238;6.698;2023-05-29T05:36:18;99303.97;;;17.05;59.54
9899;BME280;4988;49.238;6.698;2023-05-29T05:38:43;99296.53;;;17.09;58.93
9899;BME280;4988;49.238;6.698;2023-05-29T05:41:08;99292.97;;;17.21;58.79
9899;BME280;4988;49.238;6.698;2023-05-29T05:43:34;99296.19;;;17.26;58.76
9899;BME280;4988;49.238;6.698;2023-05-29T05:45:59;99295.13;;;17.29;58.09
9899;BME280;4988;49.238;6.698;2023-05-29T05:48:25;99308.00;;;17.36;58.18
9899;BME280;4988;49.238;6.698;2023-05-29T05:50:50;99305.00;;;17.41;58.14
9899;BME280;4988;49.238;6.698;2023-05-29T05:53:15;99303.97;;;17.55;57.33
9899;BME280;4988;49.238;6.698;2023-05-29T05:55:42;99297.44;;;17.59;57.28
9899;BME280;4988;49.238;6.698;2023-05-29T05:58:07;99305.59;;;17.58;56.55
9899;BME280;4988;49.238;6.698;2023-05-29T06:00:32;99305.16;;;17.64;56.95
9899;BME280;4988;49.238;6.698;2023-05-29T06:02:57;99304.59;;;17.72;57.16
9899;BME280;4988;49.238;6.698;2023-05-29T06:05:24;99315.47;;;17.70;57.75
9899;BME280;4988;49.238;6.698;2023-05-29T06:07:49;99309.03;;;17.73;57.62
9899;BME280;4988;49.238;6.698;2023-05-29T06:10:15;99314.16;;;17.76;58.00
9899;BME280;4988;49.238;6.698;2023-05-29T06:12:40;99315.44;;;17.83;58.22
9899;BME280;4988;49.238;6.698;2023-05-29T06:15:06;99315.53;;;17.94;58.04
9899;BME280;4988;49.238;6.698;2023-05-29T06:17:32;99317.44;;;18.05;57.54
9899;BME280;4988;49.238;6.698;2023-05-29T06:19:57;99328.50;;;18.13;57.40
9899;BME280;4988;49.238;6.698;2023-05-29T06:22:22;99326.31;;;18.19;57.22
9899;BME280;4988;49.238;6.698;2023-05-29T06:24:48;99325.88;;;18.25;57.41
9899;BME280;4988;49.238;6.698;2023-05-29T06:27:13;99331.19;;;18.38;56.87
9899;BME280;4988;49.238;6.698;2023-05-29T06:29:38;99329.75;;;18.45;56.36
9899;BME280;4988;49.238;6.698;2023-05-29T06:32:04;99333.47;;;18.55;56.46
9899;BME280;4988;49.238;6.698;2023-05-29T06:34:30;99338.66;;;18.70;55.80
9899;BME280;4988;49.238;6.698;2023-05-29T06:36:55;99336.09;;;18.79;55.12
9899;BME280;4988;49.238;6.698;2023-05-29T06:39:20;99330.13;;;18.87;54.70
9899;BME280;4988;49.238;6.698;2023-05-29T06:41:46;99328.94;;;18.91;53.21
9899;BME280;4988;49.238;6.698;2023-05-29T06:44:11;99333.03;;;19.08;53.29
9899;BME280;4988;49.238;6.698;2023-05-29T06:46:37;99337.44;;;19.09;52.88
9899;BME280;4988;49.238;6.698;2023-05-29T06:49:02;99337.59;;;19.19;53.27
9899;BME280;4988;49.238;6.698;2023-05-29T06:51:27;99340.63;;;19.37;53.68
9899;BME280;4988;49.238;6.698;2023-05-29T06:53:53;99339.66;;;19.50;52.15
9899;BME280;4988;49.238;6.698;2023-05-29T06:56:18;99338.31;;;19.55;51.46
9899;BME280;4988;49.238;6.698;2023-05-29T06:58:43;99340.78;;;19.70;52.17
9899;BME280;4988;49.238;6.698;2023-05-29T07:01:10;99331.41;;;19.74;50.73
9899;BME280;4988;49.238;6.698;2023-05-29T07:03:36;99340.63;;;19.83;50.82
9899;BME280;4988;49.238;6.698;2023-05-29T07:06:02;99339.78;;;19.93;50.53
9899;BME280;4988;49.238;6.698;2023-05-29T07:08:27;99347.72;;;20.06;50.58
9899;BME280;4988;49.238;6.698;2023-05-29T07:10:52;99349.53;;;20.17;50.76
9899;BME280;4988;49.238;6.698;2023-05-29T07:13:18;99341.38;;;20.29;50.23
9899;BME280;4988;49.238;6.698;2023-05-29T07:15:48;99342.00;;;20.32;48.88
9899;BME280;4988;49.238;6.698;2023-05-29T07:18:13;99346.94;;;20.27;47.39
9899;BME280;4988;49.238;6.698;2023-05-29T07:20:39;99345.44;;;20.34;47.33
9899;BME280;4988;49.238;6.698;2023-05-29T07:23:04;99347.72;;;20.50;47.76
9899;BME280;4988;49.238;6.698;2023-05-29T07:25:30;99340.88;;;20.67;46.73
9899;BME280;4988;49.238;6.698;2023-05-29T07:27:56;99345.94;;;20.72;46.21
9899;BME280;4988;49.238;6.698;2023-05-29T07:30:21;99354.50;;;20.77;47.26
9899;BME280;4988;49.238;6.698;2023-05-29T07:32:47;99342.19;;;20.84;45.82
9899;BME280;4988;49.238;6.698;2023-05-29T07:35:12;99350.53;;;20.81;46.58
9899;BME280;4988;49.238;6.698;2023-05-29T07:37:37;99342.69;;;20.78;45.66
9899;BME280;4988;49.238;6.698;2023-05-29T07:40:03;99348.13;;;20.78;46.85
9899;BME280;4988;49.238;6.698;2023-05-29T07:42:32;99344.75;;;20.86;46.16
9899;BME280;4988;49.238;6.698;2023-05-29T07:44:58;99341.81;;;20.99;47.05
9899;BME280;4988;49.238;6.698;2023-05-29T07:47:23;99353.44;;;21.11;46.22
9899;BME280;4988;49.238;6.698;2023-05-29T07:49:49;99347.41;;;21.28;46.14
9899;BME280;4988;49.238;6.698;2023-05-29T07:52:14;99344.41;;;21.21;45.60
9899;BME280;4988;49.238;6.698;2023-05-29T07:54:40;99346.38;;;21.19;45.57
9899;BME280;4988;49.238;6.698;2023-05-29T07:57:05;99348.34;;;21.17;45.61
9899;BME280;4988;49.238;6.698;2023-05-29T07:59:35;99353.94;;;21.26;44.82
9899;BME280;4988;49.238;6.698;2023-05-29T08:02:00;99347.75;;;21.35;45.78
9899;BME280;4988;49.238;6.698;2023-05-29T08:04:28;99343.66;;;21.50;43.50
9899;BME280;4988;49.238;6.698;2023-05-29T08:06:53;99339.66;;;21.45;43.68
9899;BME280;4988;49.238;6.698;2023-05-29T08:09:18;99340.50;;;21.45;43.76
9899;BME280;4988;49.238;6.698;2023-05-29T08:11:44;99342.16;;;21.58;43.66
9899;BME280;4988;49.238;6.698;2023-05-29T08:14:12;99336.47;;;21.61;42.40
9899;BME280;4988;49.238;6.698;2023-05-29T08:16:37;99342.91;;;21.60;43.30
9899;BME280;4988;49.238;6.698;2023-05-29T08:19:03;99336.63;;;21.69;42.14
9899;BME280;4988;49.238;6.698;2023-05-29T08:21:29;99331.69;;;21.74;41.91
9899;BME280;4988;49.238;6.698;2023-05-29T08:23:55;99334.84;;;21.79;41.99
9899;BME280;4988;49.238;6.698;2023-05-29T08:26:20;99334.97;;;21.88;42.05
9899;BME280;4988;49.238;6.698;2023-05-29T08:28:46;99333.56;;;21.83;42.22
9899;BME280;4988;49.238;6.698;2023-05-29T08:31:11;99332.81;;;21.81;41.94
9899;BME280;4988;49.238;6.698;2023-05-29T08:33:37;99331.84;;;21.92;42.12
9899;BME280;4988;49.238;6.698;2023-05-29T08:36:02;99335.00;;;21.97;42.55
9899;BME280;4988;49.238;6.698;2023-05-29T08:38:28;99328.34;;;22.11;42.66
9899;BME280;4988;49.238;6.698;2023-05-29T08:40:56;99328.34;;;22.21;42.74
9899;BME280;4988;49.238;6.698;2023-05-29T08:43:23;99331.19;;;22.20;42.77
9899;BME280;4988;49.238;6.698;2023-05-29T08:45:53;99334.06;;;22.28;42.80
9899;BME280;4988;49.238;6.698;2023-05-29T08:48:22;99338.22;;;22.42;42.39
9899;BME280;4988;49.238;6.698;2023-05-29T08:50:48;99339.69;;;22.46;42.67
9899;BME280;4988;49.238;6.698;2023-05-29T08:53:15;99344.97;;;22.57;43.14
9899;BME280;4988;49.238;6.698;2023-05-29T08:55:41;99332.69;;;22.63;42.04
9899;BME280;4988;49.238;6.698;2023-05-29T08:58:08;99333.94;;;22.69;41.54
9899;BME280;4988;49.238;6.698;2023-05-29T09:00:33;99334.50;;;22.82;42.30
9899;BME280;4988;49.238;6.698;2023-05-29T09:02:59;99342.06;;;22.98;43.95
9899;BME280;4988;49.238;6.698;2023-05-29T09:05:28;99335.47;;;23.10;42.53
9899;BME280;4988;49.238;6.698;2023-05-29T09:07:55;99332.59;;;23.22;42.38
9899;BME280;4988;49.238;6.698;2023-05-29T09:10:21;99334.31;;;23.23;41.63
9899;BME280;4988;49.238;6.698;2023-05-29T09:12:47;99323.16;;;23.26;41.48
9899;BME280;4988;49.238;6.698;2023-05-29T09:15:20;99327.47;;;23.19;41.41
9899;BME280;4988;49.238;6.698;2023-05-29T09:17:57;99330.19;;;23.19;42.01
9899;BME280;4988;49.238;6.698;2023-05-29T09:20:23;99335.03;;;23.25;41.31
9899;BME280;4988;49.238;6.698;2023-05-29T09:22:56;99332.72;;;23.30;41.38
9899;BME280;4988;49.238;6.698;2023-05-29T09:25:24;99325.59;;;23.19;41.51
9899;BME280;4988;49.238;6.698;2023-05-29T09:28:04;99325.69;;;23.37;42.21
9899;BME280;4988;49.238;6.698;2023-05-29T09:30:31;99331.81;;;23.49;42.13
9899;BME280;4988;49.238;6.698;2023-05-29T09:32:59;99319.72;;;23.61;41.43
9899;BME280;4988;49.238;6.698;2023-05-29T09:35:26;99329.78;;;23.79;41.72
9899;BME280;4988;49.238;6.698;2023-05-29T09:37:53;99331.41;;;23.72;41.38
9899;BME280;4988;49.238;6.698;2023-05-29T09:40:18;99322.53;;;23.70;41.06
9899;BME280;4988;49.238;6.698;2023-05-29T09:42:44;99317.38;;;23.76;41.37
9899;BME280;4988;49.238;6.698;2023-05-29T09:45:09;99327.31;;;23.86;40.58
9899;BME280;4988;49.238;6.698;2023-05-29T09:47:35;99318.69;;;24.00;41.15
9899;BME280;4988;49.238;6.698;2023-05-29T09:50:00;99318.63;;;24.10;40.81
9899;BME280;4988;49.238;6.698;2023-05-29T09:52:29;99314.34;;;24.07;40.88
9899;BME280;4988;49.238;6.698;2023-05-29T09:54:55;99312.00;;;24.13;40.82
9899;BME280;4988;49.238;6.698;2023-05-29T09:57:22;99309.50;;;24.01;41.05
9899;BME280;4988;49.238;6.698;2023-05-29T09:59:49;99309.44;;;24.11;41.27
9899;BME280;4988;49.238;6.698;2023-05-29T10:02:17;99307.81;;;24.00;40.72
9899;BME280;4988;49.238;6.698;2023-05-29T10:04:43;99316.34;;;24.05;41.88
9899;BME280;4988;49.238;6.698;2023-05-29T10:09:53;99308.84;;;24.17;41.52
9899;BME280;4988;49.238;6.698;2023-05-29T10:12:21;99312.72;;;24.33;40.87
9899;BME280;4988;49.238;6.698;2023-05-29T10:14:49;99305.09;;;24.36;40.07
9899;BME280;4988;49.238;6.698;2023-05-29T10:17:15;99308.69;;;24.37;40.90
9899;BME280;4988;49.238;6.698;2023-05-29T10:19:43;99301.81;;;24.33;40.20
9899;BME280;4988;49.238;6.698;2023-05-29T10:22:11;99300.34;;;24.38;41.00
9899;BME280;4988;49.238;6.698;2023-05-29T10:24:36;99284.25;;;24.45;40.58
9899;BME280;4988;49.238;6.698;2023-05-29T10:27:04;99297.47;;;24.58;40.47
9899;BME280;4988;49.238;6.698;2023-05-29T10:29:49;99283.81;;;24.68;40.65
9899;BME280;4988;49.238;6.698;2023-05-29T10:32:52;99294.34;;;24.89;38.95
9899;BME280;4988;49.238;6.698;2023-05-29T10:35:37;99288.31;;;25.03;37.99
9899;BME280;4988;49.238;6.698;2023-05-29T10:38:12;99296.53;;;25.12;38.58
9899;BME280;4988;49.238;6.698;2023-05-29T10:40:43;99289.47;;;25.27;38.20
9899;BME280;4988;49.238;6.698;2023-05-29T10:43:09;99289.47;;;25.27;37.84
9899;BME280;4988;49.238;6.698;2023-05-29T10:45:54;99284.53;;;25.31;38.42
9899;BME280;4988;49.238;6.698;2023-05-29T10:48:43;99287.97;;;25.33;37.88
9899;BME280;4988;49.238;6.698;2023-05-29T10:51:10;99282.81;;;25.30;37.35
9899;BME280;4988;49.238;6.698;2023-05-29T10:53:48;99277.91;;;25.33;38.07
9899;BME280;4988;49.238;6.698;2023-05-29T10:56:20;99284.50;;;25.49;39.61
9899;BME280;4988;49.238;6.698;2023-05-29T10:58:52;99266.78;;;25.53;37.51
9899;BME280;4988;49.238;6.698;2023-05-29T11:01:21;99280.41;;;25.53;37.83
9899;BME280;4988;49.238;6.698;2023-05-29T11:03:46;99268.50;;;25.54;37.67
9899;BME280;4988;49.238;6.698;2023-05-29T11:06:20;99269.19;;;25.56;37.67
9899;BME280;4988;49.238;6.698;2023-05-29T11:08:47;99271.25;;;25.62;37.64
9899;BME280;4988;49.238;6.698;2023-05-29T11:11:35;99268.66;;;25.52;36.59
9899;BME280;4988;49.238;6.698;2023-05-29T11:14:05;99275.84;;;25.62;37.75
9899;BME280;4988;49.238;6.698;2023-05-29T11:18:57;99267.34;;;25.73;37.77
9899;BME280;4988;49.238;6.698;2023-05-29T11:21:25;99261.44;;;25.86;37.48
9899;BME280;4988;49.238;6.698;2023-05-29T11:23:55;99261.09;;;25.81;36.69
9899;BME280;4988;49.238;6.698;2023-05-29T11:26:25;99265.81;;;25.62;37.51
9899;BME280;4988;49.238;6.698;2023-05-29T11:28:51;99269.19;;;25.56;37.13
9899;BME280;4988;49.238;6.698;2023-05-29T11:31:17;99273.25;;;25.52;37.43
9899;BME280;4988;49.238;6.698;2023-05-29T11:33:48;99280.75;;;25.50;37.61
9899;BME280;4988;49.238;6.698;2023-05-29T11:36:21;99273.72;;;25.47;38.34
9899;BME280;4988;49.238;6.698;2023-05-29T11:38:46;99269.69;;;25.51;38.27
9899;BME280;4988;49.238;6.698;2023-05-29T11:41:12;99266.81;;;25.69;38.20
9899;BME280;4988;49.238;6.698;2023-05-29T11:43:37;99276.41;;;25.82;37.25
9899;BME280;4988;49.238;6.698;2023-05-29T11:46:17;99279.78;;;25.76;36.71
9899;BME280;4988;49.238;6.698;2023-05-29T11:48:47;99275.78;;;25.88;37.47
9899;BME280;4988;49.238;6.698;2023-05-29T11:51:12;99274.22;;;25.94;36.44
9899;BME280;4988;49.238;6.698;2023-05-29T11:53:40;99266.22;;;25.92;36.86
9899;BME280;4988;49.238;6.698;2023-05-29T11:56:08;99265.50;;;25.82;36.45
9899;BME280;4988;49.238;6.698;2023-05-29T11:58:33;99277.06;;;25.76;37.18
9899;BME280;4988;49.238;6.698;2023-05-29T12:00:59;99268.91;;;25.84;38.10
9899;BME280;4988;49.238;6.698;2023-05-29T12:03:24;99273.41;;;25.93;36.54
9899;BME280;4988;49.238;6.698;2023-05-29T12:05:50;99276.75;;;25.79;36.79
9899;BME280;4988;49.238;6.698;2023-05-29T12:08:21;99276.38;;;25.65;37.25
9899;BME280;4988;49.238;6.698;2023-05-29T12:10:49;99269.53;;;25.61;37.65
9899;BME280;4988;49.238;6.698;2023-05-29T12:13:14;99282.69;;;25.74;38.26
9899;BME280;4988;49.238;6.698;2023-05-29T12:15:43;99277.59;;;25.79;37.96
9899;BME280;4988;49.238;6.698;2023-05-29T12:18:08;99295.16;;;25.77;36.82
9899;BME280;4988;49.238;6.698;2023-05-29T12:20:34;99283.41;;;25.76;36.87
9899;BME280;4988;49.238;6.698;2023-05-29T12:23:01;99275.91;;;25.78;36.68
9899;BME280;4988;49.238;6.698;2023-05-29T12:25:27;99269.78;;;25.93;36.31
9899;BME280;4988;49.238;6.698;2023-05-29T12:27:55;99269.66;;;25.94;36.61
9899;BME280;4988;49.238;6.698;2023-05-29T12:30:22;99271.69;;;25.92;36.95
9899;BME280;4988;49.238;6.698;2023-05-29T12:32:52;99268.91;;;25.84;37.30
9899;BME280;4988;49.238;6.698;2023-05-29T12:35:25;99270.63;;;25.85;37.99
9899;BME280;4988;49.238;6.698;2023-05-29T12:40:23;99269.28;;;25.89;37.03
9899;BME280;4988;49.238;6.698;2023-05-29T12:43:05;99272.00;;;25.89;37.15
9899;BME280;4988;49.238;6.698;2023-05-29T12:45:33;99262.47;;;25.93;37.63
9899;BME280;4988;49.238;6.698;2023-05-29T12:47:59;99268.91;;;25.84;37.74
9899;BME280;4988;49.238;6.698;2023-05-29T12:53:02;99272.75;;;26.08;38.51
9899;BME280;4988;49.238;6.698;2023-05-29T12:55:29;99266.81;;;26.21;37.15
9899;BME280;4988;49.238;6.698;2023-05-29T12:57:55;99264.59;;;26.24;36.84
9899;BME280;4988;49.238;6.698;2023-05-29T13:00:23;99268.88;;;26.27;37.28
9899;BME280;4988;49.238;6.698;2023-05-29T13:02:49;99266.13;;;26.27;36.27
9899;BME280;4988;49.238;6.698;2023-05-29T13:05:15;99257.75;;;26.20;36.24
9899;BME280;4988;49.238;6.698;2023-05-29T13:07:41;99260.00;;;26.16;36.97
9899;BME280;4988;49.238;6.698;2023-05-29T13:10:07;99257.59;;;26.22;36.76
9899;BME280;4988;49.238;6.698;2023-05-29T13:12:34;99264.59;;;26.24;37.41
9899;BME280;4988;49.238;6.698;2023-05-29T13:14:59;99256.25;;;26.34;36.33
9899;BME280;4988;49.238;6.698;2023-05-29T13:17:25;99261.53;;;26.36;36.47
9899;BME280;4988;49.238;6.698;2023-05-29T13:19:50;99270.41;;;26.38;36.13
9899;BME280;4988;49.238;6.698;2023-05-29T13:22:15;99262.88;;;26.40;36.17
9899;BME280;4988;49.238;6.698;2023-05-29T13:24:41;99268.53;;;26.38;35.82
9899;BME280;4988;49.238;6.698;2023-05-29T13:27:07;99269.72;;;26.44;36.94
9899;BME280;4988;49.238;6.698;2023-05-29T13:29:32;99254.69;;;26.40;34.99
9899;BME280;4988;49.238;6.698;2023-05-29T13:31:57;99259.50;;;26.38;35.51
9899;BME280;4988;49.238;6.698;2023-05-29T13:34:23;99261.22;;;26.39;35.42
9899;BME280;4988;49.238;6.698;2023-05-29T13:36:53;99260.69;;;26.35;36.54
9899;BME280;4988;49.238;6.698;2023-05-29T13:39:19;99241.91;;;26.40;35.98
9899;BME280;4988;49.238;6.698;2023-05-29T13:41:44;99246.50;;;26.48;37.11